Time;durP1;ratioP1;P1;durP2;ratioP2;P2;SDS_P1;SDS_P2;PMS_P1;PMS_P2;Temp;Humidity;BMP_temperature;BMP_pressure;BME280_temperature;BME280_humidity;BME280_pressure;Samples;Min_cycle;Max_cycle;Signal;HPM_P1;HPM_P2
2022/08/05 00:02:07;;;;;;;4.07;3.35;;;;;;;19.86;66.81;64057.22;5024494;28;20225;-75
2022/08/05 00:04:34;;;;;;;4.05;3.75;;;;;;;19.81;66.60;64052.00;5023461;28;20213;-75
2022/08/05 00:07:02;;;;;;;3.90;3.60;;;;;;;19.77;65.86;64042.66;5024279;28;21227;-75
2022/08/05 00:09:29;;;;;;;4.00;3.70;;;;;;;19.82;65.92;64049.94;5025927;28;20268;-76
2022/08/05 00:11:56;;;;;;;4.35;3.65;;;;;;;19.82;65.51;64047.88;5024591;28;20245;-76
2022/08/05 00:14:23;;;;;;;3.20;3.10;;;;;;;19.86;64.76;64054.13;5024992;28;20210;-76
2022/08/05 00:16:50;;;;;;;3.67;3.47;;;;;;;19.90;64.38;64061.41;5024277;28;20269;-76
2022/08/05 00:19:17;;;;;;;3.10;3.00;;;;;;;19.97;63.95;64066.13;5023070;28;20210;-76
2022/08/05 00:21:44;;;;;;;4.22;2.78;;;;;;;19.90;64.64;64053.13;5022994;28;20218;-78
2022/08/05 00:24:12;;;;;;;3.63;3.33;;;;;;;19.90;63.97;64066.03;5024748;28;20202;-76
2022/08/05 00:26:39;;;;;;;4.10;3.47;;;;;;;19.93;63.93;64064.00;5025261;28;20226;-76
2022/08/05 00:29:06;;;;;;;3.28;3.00;;;;;;;19.88;64.55;64056.72;5029416;28;20315;-75
2022/08/05 00:31:33;;;;;;;2.92;2.80;;;;;;;19.84;64.71;64052.56;5025016;28;20219;-77
2022/08/05 00:34:00;;;;;;;3.75;3.55;;;;;;;19.81;64.50;64051.50;5026692;28;20208;-75
2022/08/05 00:36:27;;;;;;;3.63;3.42;;;;;;;19.78;64.66;64048.34;5025834;28;20252;-76
2022/08/05 00:38:54;;;;;;;4.07;3.67;;;;;;;19.78;64.99;64040.59;5024562;28;20418;-76
2022/08/05 00:41:29;;;;;;;3.17;2.97;;;;;;;19.79;64.94;64049.94;5023583;28;20237;-75
2022/08/05 00:43:56;;;;;;;3.50;3.30;;;;;;;19.74;65.85;64042.13;5020365;28;20235;-76
2022/08/05 00:46:23;;;;;;;3.35;3.25;;;;;;;19.72;66.60;64042.09;5025617;28;20276;-76
2022/08/05 00:48:50;;;;;;;3.83;3.63;;;;;;;19.68;67.20;64032.75;5024542;28;20237;-76
2022/08/05 00:51:18;;;;;;;5.07;3.80;;;;;;;19.65;66.83;64032.22;5024016;28;20229;-77
2022/08/05 00:53:44;;;;;;;3.33;3.15;;;;;;;19.60;67.29;64022.34;5022105;28;20379;-76
2022/08/05 00:56:11;;;;;;;3.38;3.17;;;;;;;19.62;67.71;64029.63;5025373;28;20257;-76
2022/08/05 00:58:40;;;;;;;3.40;3.20;;;;;;;19.52;70.16;64022.28;5023488;28;20248;-77
2022/08/05 01:01:06;;;;;;;3.65;3.45;;;;;;;19.47;69.35;64017.06;5022737;28;20261;-75
2022/08/05 01:03:33;;;;;;;3.50;3.30;;;;;;;19.44;69.64;64011.38;5015701;28;20198;-76
2022/08/05 01:06:00;;;;;;;3.45;3.25;;;;;;;19.35;70.84;64006.59;5023564;28;20255;-75
2022/08/05 01:08:27;;;;;;;4.07;3.78;;;;;;;19.30;71.28;63996.22;5024819;28;20439;-75
2022/08/05 01:10:57;;;;;;;4.25;3.85;;;;;;;19.24;71.31;63989.97;5017146;28;20265;-76
2022/08/05 01:13:41;;;;;;;5.60;4.22;;;;;;;19.15;71.50;63981.09;5018919;28;20201;-76
2022/08/05 01:16:18;;;;;;;4.60;4.20;;;;;;;19.08;71.62;63971.22;5021803;28;20218;-76
2022/08/05 01:18:50;;;;;;;3.92;3.72;;;;;;;19.10;72.45;63975.88;5023505;28;20585;-76
2022/08/05 01:21:33;;;;;;;3.83;3.63;;;;;;;19.04;73.38;63972.22;5015777;28;20222;-76
2022/08/05 01:24:14;;;;;;;3.95;3.67;;;;;;;18.99;74.93;63963.88;5023786;28;20204;-77
2022/08/05 01:26:56;;;;;;;3.60;3.40;;;;;;;18.98;74.04;63962.84;5031858;28;20280;-77
2022/08/05 01:29:31;;;;;;;3.72;3.53;;;;;;;18.96;74.01;63963.34;5013532;28;20290;-76
2022/08/05 01:32:02;;;;;;;4.05;3.85;;;;;;;18.84;73.93;63948.78;5020557;28;20405;-77
2022/08/05 01:34:36;;;;;;;4.30;4.00;;;;;;;18.85;73.27;63949.28;5022829;28;20206;-76
2022/08/05 01:37:08;;;;;;;3.28;3.08;;;;;;;18.81;73.81;63947.72;5023342;28;20533;-77
2022/08/05 01:39:38;;;;;;;3.63;3.42;;;;;;;18.81;74.99;63942.56;5023397;28;20395;-77
2022/08/05 01:42:06;;;;;;;3.22;3.03;;;;;;;18.79;75.30;63946.16;5023500;28;20321;-76
2022/08/05 01:44:36;;;;;;;4.00;3.80;;;;;;;18.78;75.08;63942.00;5023761;28;20248;-76
2022/08/05 01:47:04;;;;;;;3.25;3.15;;;;;;;18.73;75.83;63937.31;5023413;28;20268;-78
2022/08/05 01:49:33;;;;;;;4.45;3.67;;;;;;;18.71;75.92;63937.81;5023278;28;20257;-77
2022/08/05 01:52:03;;;;;;;3.92;3.72;;;;;;;18.70;75.25;63931.09;5022271;28;20983;-77
2022/08/05 01:54:34;;;;;;;3.80;3.60;;;;;;;18.72;75.27;63933.69;5023272;28;20205;-75
2022/08/05 01:57:04;;;;;;;5.28;3.60;;;;;;;18.69;75.38;63933.13;5010090;28;20298;-76
2022/08/05 01:59:34;;;;;;;6.80;3.72;;;;;;;18.64;76.04;63927.91;5020272;28;20201;-76
2022/08/05 02:02:02;;;;;;;4.35;4.05;;;;;;;18.62;77.05;63925.34;5023132;28;20252;-77
2022/08/05 02:04:34;;;;;;;3.95;3.75;;;;;;;18.57;77.04;63922.69;5021613;28;20202;-75
2022/08/05 02:07:01;;;;;;;3.75;3.40;;;;;;;18.54;77.91;63914.94;5023213;28;20423;-75
2022/08/05 02:09:28;;;;;;;4.30;4.00;;;;;;;18.50;78.87;63917.97;5021931;28;20545;-76
2022/08/05 02:12:03;;;;;;;3.88;3.67;;;;;;;18.45;79.43;63910.69;5021938;28;20265;-75
2022/08/05 02:14:37;;;;;;;7.30;4.82;;;;;;;18.43;80.31;63906.03;5022427;28;20401;-75
2022/08/05 02:17:07;;;;;;;4.55;4.25;;;;;;;18.48;80.38;63919.00;5022312;28;20222;-75
2022/08/05 02:19:37;;;;;;;4.28;4.00;;;;;;;18.46;80.29;63906.59;5022692;28;20237;-76
2022/08/05 02:22:15;;;;;;;4.07;3.88;;;;;;;18.43;80.32;63906.03;5022172;28;20273;-76
2022/08/05 02:24:50;;;;;;;4.13;3.83;;;;;;;18.35;80.26;63898.22;5013593;28;20276;-76
2022/08/05 02:27:19;;;;;;;3.88;3.67;;;;;;;18.37;80.16;63900.31;5022813;28;20210;-76
2022/08/05 02:29:49;;;;;;;4.28;3.80;;;;;;;18.24;79.88;63881.59;5027240;28;20584;-76
2022/08/05 02:32:20;;;;;;;4.07;3.88;;;;;;;18.25;80.04;63890.38;5026461;28;20206;-76
2022/08/05 02:34:47;;;;;;;4.18;3.92;;;;;;;18.29;79.71;63891.94;5025442;28;20361;-76
2022/08/05 02:37:15;;;;;;;4.53;4.22;;;;;;;18.30;79.65;63887.31;5026268;28;20214;-77
2022/08/05 02:39:43;;;;;;;4.07;3.83;;;;;;;18.31;79.50;63894.03;5025970;28;20292;-76
2022/08/05 02:42:11;;;;;;;4.60;4.15;;;;;;;18.35;78.87;63893.06;5013859;28;20428;-76
2022/08/05 02:44:40;;;;;;;4.13;3.72;;;;;;;18.37;79.19;63897.19;5026887;28;20479;-76
2022/08/05 02:47:11;;;;;;;4.75;4.53;;;;;;;18.46;78.30;63908.66;5025697;28;20251;-76
2022/08/05 02:49:41;;;;;;;4.28;3.88;;;;;;;18.48;78.85;63908.16;5014522;28;20221;-76
2022/08/05 02:52:11;;;;;;;4.45;4.07;;;;;;;18.50;78.79;63908.16;5018001;28;20426;-76
2022/08/05 02:54:39;;;;;;;4.72;4.10;;;;;;;18.51;78.15;63913.84;5025454;28;20208;-75
2022/08/05 02:57:11;;;;;;;4.75;4.47;;;;;;;18.48;78.64;63911.25;5025901;28;20455;-76
2022/08/05 02:59:38;;;;;;;4.85;3.67;;;;;;;18.43;79.16;63906.56;5015345;28;20198;-76
2022/08/05 03:02:06;;;;;;;4.72;4.22;;;;;;;18.47;78.90;63905.06;5022463;28;20530;-76
2022/08/05 03:04:35;;;;;;;4.20;3.90;;;;;;;18.46;79.87;63911.75;5025793;28;20205;-76
2022/08/05 03:07:02;;;;;;;4.70;4.40;;;;;;;18.54;79.01;63914.41;5025962;28;20222;-76
2022/08/05 03:09:29;;;;;;;4.22;3.97;;;;;;;18.49;79.17;63909.72;5025194;28;20280;-77
2022/08/05 03:11:57;;;;;;;3.20;3.03;;;;;;;18.48;79.44;63913.31;5027030;28;20240;-76
2022/08/05 03:14:24;;;;;;;4.57;4.15;;;;;;;18.48;80.61;63913.84;5026525;28;20202;-76
2022/08/05 03:16:51;;;;;;;4.32;4.03;;;;;;;18.52;79.14;63912.84;5020794;28;20222;-75
2022/08/05 03:19:17;;;;;;;4.03;3.83;;;;;;;18.45;80.17;63907.63;5024546;28;20269;-75
2022/08/05 03:21:46;;;;;;;6.72;4.38;;;;;;;18.40;80.22;63900.88;5026347;28;20546;-76
2022/08/05 03:24:13;;;;;;;4.47;3.78;;;;;;;18.38;80.25;63898.22;5025497;28;20210;-76
2022/08/05 03:26:40;;;;;;;5.13;4.70;;;;;;;18.40;80.29;63903.44;5024020;28;20237;-75
2022/08/05 03:29:07;;;;;;;4.28;3.97;;;;;;;18.37;80.50;63900.31;5031611;28;20497;-76
2022/08/05 03:31:34;;;;;;;4.38;4.07;;;;;;;18.43;80.46;63906.03;5033578;28;20393;-76
2022/08/05 03:34:01;;;;;;;4.50;4.10;;;;;;;18.45;79.48;63905.03;5025381;28;20210;-76
2022/08/05 03:36:29;;;;;;;4.10;3.75;;;;;;;18.47;79.15;63910.22;5024388;28;20366;-76
2022/08/05 03:38:57;;;;;;;4.47;4.18;;;;;;;18.37;79.81;63894.63;5024014;28;20264;-76
2022/08/05 03:41:24;;;;;;;3.65;3.45;;;;;;;18.45;80.00;63905.53;5025321;28;20229;-77
2022/08/05 03:43:51;;;;;;;4.18;3.80;;;;;;;18.49;80.09;63909.72;5021255;28;20226;-77
2022/08/05 03:46:18;;;;;;;4.45;4.15;;;;;;;18.54;78.76;63920.09;5018712;28;20230;-76
2022/08/05 03:48:45;;;;;;;6.03;3.90;;;;;;;18.61;78.73;63924.28;5025032;28;20221;-77
2022/08/05 03:51:15;;;;;;;4.65;4.22;;;;;;;18.66;78.38;63927.44;5024446;28;20237;-76
2022/08/05 03:53:50;;;;;;;3.38;3.28;;;;;;;18.73;78.30;63942.47;5013935;28;20218;-76
2022/08/05 03:56:25;;;;;;;3.33;3.22;;;;;;;18.85;77.43;63949.81;5012655;28;20233;-77
2022/08/05 03:58:55;;;;;;;3.75;3.55;;;;;;;18.86;76.86;63945.19;5025065;28;20471;-76
2022/08/05 04:01:23;;;;;;;4.15;3.85;;;;;;;18.96;77.20;63961.28;5024090;28;20397;-77
2022/08/05 04:03:51;;;;;;;4.97;4.00;;;;;;;19.05;77.46;63967.56;5021145;28;20202;-76
2022/08/05 04:06:19;;;;;;;6.72;6.13;;;;;;;19.11;77.62;63974.34;5023891;28;20241;-76
2022/08/05 04:08:47;;;;;;;4.60;4.20;;;;;;;19.19;77.39;63985.25;5024906;28;20209;-75
2022/08/05 04:11:14;;;;;;;6.05;3.63;;;;;;;19.29;77.01;63997.75;5016374;28;20242;-76
2022/08/05 04:13:43;;;;;;;4.22;3.92;;;;;;;19.31;77.90;63997.28;5024975;28;20206;-76
2022/08/05 04:16:10;;;;;;;3.45;3.25;;;;;;;19.35;80.51;64001.44;5024416;28;20218;-75
2022/08/05 04:18:38;;;;;;;4.78;4.45;;;;;;;19.37;80.46;64004.06;5025313;28;20510;-76
2022/08/05 04:21:06;;;;;;;4.50;4.20;;;;;;;19.40;80.29;64006.66;5021214;28;20276;-77
2022/08/05 04:23:35;;;;;;;4.65;4.35;;;;;;;19.50;80.51;64014.50;5024899;28;20206;-77
2022/08/05 04:26:03;;;;;;;5.60;4.18;;;;;;;19.59;80.74;64025.97;5024720;28;20254;-76
2022/08/05 04:28:30;;;;;;;5.75;5.32;;;;;;;19.71;79.68;64039.00;5023514;28;20213;-75
2022/08/05 04:31:00;;;;;;;5.13;4.10;;;;;;;19.83;80.04;64051.50;5024733;28;20238;-76
2022/08/05 04:33:27;;;;;;;5.38;4.93;;;;;;;19.77;78.45;64047.84;5022308;28;20233;-76
2022/08/05 04:35:54;;;;;;;5.93;5.40;;;;;;;19.66;80.36;64033.78;5025557;28;20226;-77
2022/08/05 04:38:21;;;;;;;6.25;5.75;;;;;;;19.74;82.73;64044.19;5017099;28;20207;-75
2022/08/05 04:40:48;;;;;;;6.18;5.78;;;;;;;19.73;83.64;64038.50;5021174;28;20230;-76
2022/08/05 04:43:15;;;;;;;9.40;5.80;;;;;;;19.59;83.43;64028.56;5025056;28;20213;-77
2022/08/05 04:45:42;;;;;;;6.97;6.13;;;;;;;19.54;84.24;64018.69;5024907;28;20280;-76
2022/08/05 04:48:11;;;;;;;6.13;5.57;;;;;;;19.71;84.11;64041.56;5013577;28;20244;-78
2022/08/05 04:50:39;;;;;;;10.27;6.55;;;;;;;19.75;83.50;64040.06;5023534;28;20412;-77
2022/08/05 04:53:07;;;;;;;8.52;5.95;;;;;;;19.87;83.21;64047.94;5023481;28;20272;-77
2022/08/05 04:55:34;;;;;;;8.10;5.90;;;;;;;19.91;83.28;64059.34;5023022;28;20300;-75
2022/08/05 04:58:00;;;;;;;7.63;6.22;;;;;;;19.78;82.35;64045.75;5018159;28;20438;-77
2022/08/05 05:00:27;;;;;;;7.03;6.03;;;;;;;19.85;83.88;64056.19;5023092;28;20230;-76
2022/08/05 05:02:54;;;;;;;12.57;6.43;;;;;;;19.92;84.61;64060.91;5024019;28;20383;-75
2022/08/05 05:05:23;;;;;;;8.32;6.07;;;;;;;19.85;84.00;64048.44;5029730;28;20222;-76
2022/08/05 05:07:49;;;;;;;11.43;6.72;;;;;;;19.72;83.02;64042.63;5023547;28;20229;-76
2022/08/05 05:10:16;;;;;;;11.48;6.82;;;;;;;20.02;82.43;64068.25;5023432;28;20479;-77
2022/08/05 05:12:43;;;;;;;8.38;7.63;;;;;;;20.06;81.22;64069.81;5022909;28;20214;-74
2022/08/05 05:15:11;;;;;;;8.80;7.07;;;;;;;19.91;80.84;64054.16;5013798;28;20218;-76
2022/08/05 05:17:39;;;;;;;6.72;6.22;;;;;;;20.10;81.16;64076.56;5024157;28;20202;-76
2022/08/05 05:20:07;;;;;;;13.00;6.95;;;;;;;20.20;80.71;64092.72;5024134;28;20358;-76
2022/08/05 05:22:35;;;;;;;11.50;7.30;;;;;;;20.44;79.46;64109.50;5022695;28;20405;-75
2022/08/05 05:25:02;;;;;;;7.88;6.60;;;;;;;20.47;80.36;64115.19;5023851;28;20206;-77
2022/08/05 05:27:31;;;;;;;9.77;7.45;;;;;;;20.67;78.78;64138.69;5023057;28;20212;-76
2022/08/05 05:29:58;;;;;;;11.77;8.07;;;;;;;20.73;79.26;64139.22;5023615;28;20340;-75
2022/08/05 05:32:25;;;;;;;9.13;7.40;;;;;;;20.84;78.67;64156.41;5016783;28;20241;-79
2022/08/05 05:34:52;;;;;;;9.57;7.78;;;;;;;20.75;77.79;64141.31;5019154;28;20417;-76
2022/08/05 05:37:19;;;;;;;13.20;7.85;;;;;;;20.84;77.37;64150.72;5024722;28;20206;-77
2022/08/05 05:39:47;;;;;;;10.93;7.78;;;;;;;21.01;76.75;64173.66;5024104;28;20245;-75
2022/08/05 05:42:14;;;;;;;9.63;7.57;;;;;;;20.95;77.70;64165.31;5011303;28;20285;-76
2022/08/05 05:44:41;;;;;;;13.52;7.35;;;;;;;21.11;77.99;64186.69;5023912;28;20285;-78
2022/08/05 05:47:08;;;;;;;9.68;7.22;;;;;;;21.07;77.07;64180.44;5023968;28;20233;-76
2022/08/05 05:49:35;;;;;;;8.10;7.03;;;;;;;21.15;77.09;64190.88;5023830;28;20273;-76
2022/08/05 05:52:02;;;;;;;11.23;7.88;;;;;;;21.29;75.55;64203.44;5012172;28;20419;-76
2022/08/05 05:54:29;;;;;;;13.70;7.70;;;;;;;21.18;77.97;64191.41;5023659;28;20206;-76
2022/08/05 05:56:57;;;;;;;9.68;7.53;;;;;;;21.28;77.12;64197.19;5024544;28;20225;-76
2022/08/05 05:59:24;;;;;;;13.77;7.72;;;;;;;21.33;77.22;64207.59;5017189;28;20198;-76
2022/08/05 06:01:51;;;;;;;10.68;7.75;;;;;;;21.41;76.22;64213.38;5017753;28;20229;-75
2022/08/05 06:04:18;;;;;;;14.82;9.43;;;;;;;21.40;76.17;64212.31;5022985;28;20518;-77
2022/08/05 06:06:45;;;;;;;11.43;8.30;;;;;;;21.54;75.52;64229.00;5024158;28;20221;-77
2022/08/05 06:09:12;;;;;;;8.35;7.53;;;;;;;21.87;75.20;64263.00;5010227;28;20210;-76
2022/08/05 06:11:39;;;;;;;10.55;7.45;;;;;;;22.04;72.85;64280.78;5023850;28;20287;-76
2022/08/05 06:14:07;;;;;;;9.10;8.20;;;;;;;22.12;71.32;64289.66;5024348;28;20277;-76
2022/08/05 06:16:34;;;;;;;9.05;7.78;;;;;;;22.15;70.58;64297.44;5023785;28;20222;-76
2022/08/05 06:19:01;;;;;;;13.05;8.27;;;;;;;22.22;70.67;64300.09;5018403;28;20206;-76
2022/08/05 06:21:31;;;;;;;10.70;8.23;;;;;;;22.33;70.89;64309.00;5023811;28;20248;-78
2022/08/05 06:23:58;;;;;;;10.52;8.05;;;;;;;22.50;71.29;64328.84;5023742;28;20216;-76
2022/08/05 06:26:24;;;;;;;12.25;8.25;;;;;;;22.32;70.30;64307.94;5019659;28;20237;-75
2022/08/05 06:28:51;;;;;;;11.88;7.88;;;;;;;22.30;70.58;64308.44;5017790;28;20205;-77
2022/08/05 06:31:20;;;;;;;10.70;7.20;;;;;;;22.63;69.61;64345.03;5037274;28;20270;-75
2022/08/05 06:33:46;;;;;;;11.43;7.30;;;;;;;22.83;65.89;64365.97;5017303;28;20202;-77
2022/08/05 06:36:14;;;;;;;9.50;8.00;;;;;;;22.89;65.02;64367.03;5019387;28;20252;-75
2022/08/05 06:38:41;;;;;;;11.90;7.45;;;;;;;22.92;63.98;64364.97;5023830;28;20214;-74
2022/08/05 06:41:08;;;;;;;11.45;7.57;;;;;;;22.97;64.51;64372.28;5023083;28;20224;-75
2022/08/05 06:43:35;;;;;;;9.45;7.45;;;;;;;22.99;64.74;64380.09;5023302;28;20245;-76
2022/08/05 06:46:02;;;;;;;15.80;8.10;;;;;;;22.78;64.43;64363.84;5010394;28;20221;-74
2022/08/05 06:48:30;;;;;;;9.32;8.25;;;;;;;22.80;63.81;64360.75;5023011;28;20244;-75
2022/08/05 06:50:57;;;;;;;12.57;7.93;;;;;;;22.90;64.27;64368.59;5022685;28;20238;-76
2022/08/05 06:53:24;;;;;;;16.15;8.05;;;;;;;23.09;63.71;64387.94;5022530;28;20209;-75
2022/08/05 06:55:50;;;;;;;15.35;7.15;;;;;;;23.26;60.48;64405.22;5023512;28;20222;-77
2022/08/05 06:58:17;;;;;;;9.18;7.05;;;;;;;23.28;62.67;64407.84;5036430;28;20210;-75
2022/08/05 07:00:44;;;;;;;7.70;6.65;;;;;;;23.46;61.71;64426.69;5023165;28;20312;-75
2022/08/05 07:03:11;;;;;;;8.98;6.05;;;;;;;23.58;60.20;64439.25;5012413;28;20209;-75
2022/08/05 07:05:39;;;;;;;11.48;6.15;;;;;;;23.70;61.06;64453.88;5021042;28;20226;-75
2022/08/05 07:08:07;;;;;;;9.50;6.10;;;;;;;23.89;58.99;64473.75;5023064;28;20206;-75
2022/08/05 07:10:34;;;;;;;8.00;6.53;;;;;;;23.97;57.31;64482.13;5022419;28;20241;-75
2022/08/05 07:18:29;;;;;;;7.75;5.63;;;;;;;24.21;56.53;64509.88;5026916;28;20369;-75
2022/08/05 07:20:58;;;;;;;9.57;5.78;;;;;;;24.30;56.27;64518.78;5020867;28;20226;-75
2022/08/05 07:23:25;;;;;;;9.45;5.55;;;;;;;24.49;55.98;64536.56;5026902;28;20278;-75
2022/08/05 07:25:52;;;;;;;6.63;5.55;;;;;;;24.69;55.85;64560.16;5025629;28;20370;-74
2022/08/05 07:28:19;;;;;;;8.95;5.65;;;;;;;24.36;55.91;64522.44;5026271;28;20210;-76
2022/08/05 07:30:46;;;;;;;11.35;5.47;;;;;;;24.57;56.33;64547.56;5025392;28;20530;-76
2022/08/05 07:33:13;;;;;;;5.78;5.32;;;;;;;24.67;55.26;64554.91;5025923;28;20213;-75
2022/08/05 07:35:40;;;;;;;6.60;5.20;;;;;;;24.77;55.74;64563.31;5037139;28;20526;-75
2022/08/05 07:38:09;;;;;;;13.15;5.63;;;;;;;24.69;55.43;64560.16;5024242;28;20259;-75
2022/08/05 07:40:36;;;;;;;6.05;5.50;;;;;;;24.94;56.50;64586.31;5019690;28;20241;-75
2022/08/05 07:43:03;;;;;;;7.22;5.80;;;;;;;25.20;53.91;64607.81;5025370;28;20206;-75
2022/08/05 07:45:30;;;;;;;9.75;5.22;;;;;;;25.52;53.37;64646.06;5020855;28;20228;-75
2022/08/05 07:47:57;;;;;;;7.22;4.95;;;;;;;25.72;51.91;64670.16;5018900;28;20234;-76
2022/08/05 07:50:24;;;;;;;4.50;4.20;;;;;;;25.77;51.93;64670.19;5020849;28;20276;-74
2022/08/05 07:52:51;;;;;;;12.18;5.00;;;;;;;25.77;51.74;64670.19;5025429;28;20206;-76
2022/08/05 07:55:19;;;;;;;5.80;4.40;;;;;;;25.85;50.10;64675.44;5024339;28;20230;-76
2022/08/05 07:57:46;;;;;;;6.75;5.05;;;;;;;25.74;49.58;64666.50;5023816;28;20221;-75
2022/08/05 08:00:14;;;;;;;5.97;5.03;;;;;;;25.86;49.80;64679.09;5024107;28;20268;-74
2022/08/05 08:02:43;;;;;;;5.72;5.03;;;;;;;25.72;49.66;64664.41;5025034;28;20206;-73
2022/08/05 08:05:10;;;;;;;5.63;4.60;;;;;;;25.74;48.81;64669.13;5024352;28;20198;-74
2022/08/05 08:07:37;;;;;;;8.57;4.45;;;;;;;25.89;48.98;64685.34;5025873;28;20352;-75
2022/08/05 08:10:05;;;;;;;4.25;3.92;;;;;;;26.03;47.85;64699.53;5026438;28;20208;-76
2022/08/05 08:12:33;;;;;;;4.68;4.28;;;;;;;26.13;47.95;64707.94;5038271;28;20229;-75
2022/08/05 08:15:01;;;;;;;10.55;4.10;;;;;;;26.22;47.86;64722.06;5027160;28;20208;-77
2022/08/05 08:17:27;;;;;;;17.02;5.45;;;;;;;26.48;47.37;64740.97;5019945;28;20206;-77
2022/08/05 08:19:54;;;;;;;10.70;4.80;;;;;;;26.63;46.57;64759.81;5022694;28;20206;-76
2022/08/05 08:22:25;;;;;;;4.88;4.05;;;;;;;26.71;44.99;64770.34;5025179;28;20277;-76
2022/08/05 08:24:53;;;;;;;9.30;4.15;;;;;;;26.62;45.26;64761.41;5022658;28;20205;-77
2022/08/05 08:27:19;;;;;;;4.75;4.45;;;;;;;26.64;45.70;64758.28;5025391;28;20210;-74
2022/08/05 08:29:47;;;;;;;5.45;4.70;;;;;;;26.82;47.02;64781.84;5025706;28;20206;-77
2022/08/05 08:32:14;;;;;;;5.72;4.72;;;;;;;27.03;47.02;64796.56;5020379;28;20238;-77
2022/08/05 08:34:41;;;;;;;4.53;4.00;;;;;;;27.27;44.75;64826.97;5020212;28;20198;-76
2022/08/05 08:37:08;;;;;;;5.88;4.10;;;;;;;27.36;43.92;64841.16;5021729;28;20217;-76
2022/08/05 08:39:35;;;;;;;3.95;3.70;;;;;;;27.57;42.36;64854.81;5025003;28;20202;-74
2022/08/05 08:42:03;;;;;;;6.57;3.50;;;;;;;27.48;40.40;64847.97;5017598;28;20227;-76
2022/08/05 08:44:32;;;;;;;6.05;3.17;;;;;;;27.62;39.73;64868.44;5024236;28;20206;-75
2022/08/05 08:47:03;;;;;;;5.22;3.92;;;;;;;27.62;43.17;64865.28;5021445;28;20222;-76
2022/08/05 08:49:35;;;;;;;4.90;3.65;;;;;;;27.64;43.97;64862.69;5025515;28;20228;-76
2022/08/05 08:52:11;;;;;;;4.18;3.97;;;;;;;27.71;41.78;64872.13;5025601;28;20252;-77
2022/08/05 08:54:38;;;;;;;4.30;3.70;;;;;;;27.68;42.05;64874.72;5016218;28;20194;-75
2022/08/05 08:57:06;;;;;;;6.88;3.85;;;;;;;27.72;40.34;64873.69;5017475;28;20229;-75
2022/08/05 08:59:33;;;;;;;8.10;4.32;;;;;;;27.76;40.25;64880.50;5014589;28;20267;-76
2022/08/05 09:02:06;;;;;;;6.15;3.85;;;;;;;28.05;39.76;64908.34;5025692;28;20222;-76
2022/08/05 09:04:36;;;;;;;3.47;3.17;;;;;;;28.08;40.55;64913.59;5026449;28;20209;-76
2022/08/05 09:07:04;;;;;;;3.53;3.20;;;;;;;28.28;39.97;64937.22;5025436;28;20226;-77
2022/08/05 09:09:31;;;;;;;6.97;3.38;;;;;;;28.53;39.67;64955.09;5014493;28;20218;-76
2022/08/05 09:11:58;;;;;;;3.90;3.60;;;;;;;28.75;40.62;64981.34;5026120;28;20291;-76
2022/08/05 09:14:25;;;;;;;5.00;2.85;;;;;;;28.80;37.68;64991.31;5026099;28;20206;-77
2022/08/05 09:16:52;;;;;;;4.32;2.60;;;;;;;28.88;37.36;64997.63;5024811;28;20221;-76
2022/08/05 09:19:21;;;;;;;2.80;2.70;;;;;;;28.95;37.12;64999.72;5023414;28;20533;-76
2022/08/05 09:21:48;;;;;;;3.17;2.97;;;;;;;29.14;37.03;65021.81;5027111;28;20229;-76
2022/08/05 09:24:15;;;;;;;2.97;2.78;;;;;;;29.08;37.56;65018.13;5027226;28;20271;-76
2022/08/05 09:26:42;;;;;;;3.72;3.47;;;;;;;28.87;36.76;64998.69;5020622;28;20261;-75
2022/08/05 09:29:08;;;;;;;3.33;3.10;;;;;;;28.84;36.31;64990.78;5025347;28;20475;-76
2022/08/05 09:31:35;;;;;;;4.53;3.05;;;;;;;28.88;36.83;65000.25;5026157;28;20289;-76
2022/08/05 09:34:04;;;;;;;3.80;3.50;;;;;;;28.92;35.91;65003.94;5038500;28;20225;-75
2022/08/05 09:36:44;;;;;;;3.15;3.00;;;;;;;28.79;35.44;64987.63;5025714;28;20413;-76
2022/08/05 09:39:13;;;;;;;3.65;3.03;;;;;;;29.01;35.50;65013.38;5021746;28;20265;-77
2022/08/05 09:42:05;;;;;;;4.00;2.95;;;;;;;29.15;36.39;65023.38;5021421;28;20249;-76
2022/08/05 09:44:37;;;;;;;2.90;2.80;;;;;;;29.30;37.07;65041.75;5011308;28;20378;-77
2022/08/05 09:47:13;;;;;;;2.92;2.72;;;;;;;29.36;34.94;65042.28;5020435;28;20286;-76
2022/08/05 09:49:45;;;;;;;2.88;2.67;;;;;;;29.50;35.21;65059.63;5018048;28;20233;-76
2022/08/05 09:52:22;;;;;;;3.25;3.15;;;;;;;29.40;33.93;65046.50;5015019;28;20283;-76
2022/08/05 09:54:54;;;;;;;4.10;2.90;;;;;;;29.44;34.98;65056.47;5024258;28;20292;-77
2022/08/05 09:57:35;;;;;;;3.15;2.83;;;;;;;29.44;34.54;65055.97;5024244;28;20206;-76
2022/08/05 10:00:10;;;;;;;3.55;3.28;;;;;;;29.59;35.77;65076.97;5022334;28;20201;-76
2022/08/05 10:02:40;;;;;;;2.85;2.70;;;;;;;29.72;35.13;65088.03;5031120;28;20265;-77
2022/08/05 10:05:10;;;;;;;4.05;3.17;;;;;;;29.83;33.60;65094.34;5015999;28;20463;-76
2022/08/05 10:07:47;;;;;;;4.53;3.45;;;;;;;29.89;34.67;65103.25;5015742;28;20383;-76
2022/08/05 10:10:14;;;;;;;4.30;3.00;;;;;;;29.78;33.73;65094.34;5024607;28;20321;-77
2022/08/05 10:12:46;;;;;;;3.38;3.20;;;;;;;29.79;33.66;65089.59;5024151;28;20233;-76
2022/08/05 10:15:25;;;;;;;3.15;2.95;;;;;;;29.72;35.01;65082.25;5017411;28;20230;-76
2022/08/05 10:18:11;;;;;;;2.97;2.88;;;;;;;29.78;34.27;65091.72;5022499;28;20215;-76
2022/08/05 10:20:40;;;;;;;3.10;2.65;;;;;;;29.84;34.44;65095.38;5023701;28;20230;-77
2022/08/05 10:23:10;;;;;;;3.63;3.33;;;;;;;29.75;33.50;65088.03;5021793;28;20403;-76
2022/08/05 10:25:37;;;;;;;3.38;3.05;;;;;;;29.61;33.55;65068.56;5011288;28;20520;-76
2022/08/05 10:28:05;;;;;;;3.63;3.10;;;;;;;29.69;35.03;65082.25;5023240;28;20214;-76
2022/08/05 10:30:32;;;;;;;4.68;3.30;;;;;;;29.73;35.15;65085.94;5023723;28;20226;-77
2022/08/05 10:33:00;;;;;;;4.00;3.10;;;;;;;29.72;35.11;65092.75;5023162;28;20257;-76
2022/08/05 10:35:27;;;;;;;3.80;3.50;;;;;;;29.81;34.58;65094.31;5024225;28;20317;-76
2022/08/05 10:37:55;;;;;;;3.47;3.25;;;;;;;29.78;33.33;65088.56;5024144;28;20495;-78
2022/08/05 10:40:31;;;;;;;3.05;2.90;;;;;;;29.69;33.55;65084.88;5023365;28;20398;-76
2022/08/05 10:43:06;;;;;;;3.70;3.40;;;;;;;29.60;33.78;65075.38;5021428;28;20247;-76
2022/08/05 10:45:35;;;;;;;3.47;3.28;;;;;;;29.81;34.85;65094.84;5027330;28;20240;-75
2022/08/05 10:48:28;;;;;;;3.45;3.25;;;;;;;29.91;33.17;65102.22;5023345;28;20202;-76
2022/08/05 10:51:00;;;;;;;4.25;3.20;;;;;;;30.21;33.31;65139.53;5019369;28;20226;-75
2022/08/05 10:53:34;;;;;;;2.95;2.75;;;;;;;30.04;32.91;65118.50;5014677;28;20245;-75
2022/08/05 10:56:07;;;;;;;5.57;3.42;;;;;;;29.65;32.93;65078.00;5024646;28;20225;-75
2022/08/05 10:58:35;;;;;;;3.40;3.30;;;;;;;29.33;34.25;65044.94;5027133;28;20206;-74
2022/08/05 11:01:05;;;;;;;3.40;3.10;;;;;;;29.59;33.44;65074.34;5027874;28;20236;-76
2022/08/05 11:03:34;;;;;;;3.60;2.92;;;;;;;29.70;33.38;65080.66;5027434;28;20213;-77
2022/08/05 11:06:07;;;;;;;3.65;3.35;;;;;;;29.93;33.93;65109.56;5031807;28;20261;-76
2022/08/05 11:08:34;;;;;;;3.60;3.40;;;;;;;30.03;32.38;65117.47;5022203;28;20233;-74
2022/08/05 11:11:35;;;;;;;3.78;3.50;;;;;;;29.72;32.89;65082.78;5037862;28;20222;-76
2022/08/05 11:14:03;;;;;;;4.80;3.58;;;;;;;29.98;32.90;65112.19;4994819;28;20205;-74
2022/08/05 11:16:31;;;;;;;3.92;3.58;;;;;;;30.05;31.91;65117.47;5027051;28;20226;-76
2022/08/05 11:19:26;;;;;;;3.47;3.28;;;;;;;30.21;32.55;65139.53;5028079;28;20225;-75
2022/08/05 11:21:53;;;;;;;3.88;3.65;;;;;;;30.55;32.45;65172.16;5022557;28;20218;-76
2022/08/05 11:24:22;;;;;;;4.28;3.55;;;;;;;30.33;32.81;65146.91;5027363;28;20213;-75
2022/08/05 11:27:11;;;;;;;4.88;3.67;;;;;;;30.43;31.74;65156.91;5026847;28;20230;-76
2022/08/05 11:29:40;;;;;;;4.00;3.70;;;;;;;30.37;32.76;65153.22;5018426;28;20210;-75
2022/08/05 11:32:25;;;;;;;5.15;3.25;;;;;;;30.37;34.44;65151.13;5023998;28;20546;-77
2022/08/05 11:34:52;;;;;;;3.42;3.22;;;;;;;30.81;31.96;65198.97;5021799;28;20266;-77
2022/08/05 11:38:03;;;;;;;5.18;3.08;;;;;;;31.03;32.42;65219.50;5023375;28;20202;-76
2022/08/05 11:40:58;;;;;;;3.58;3.25;;;;;;;31.22;30.75;65240.00;5000769;28;20229;-73
2022/08/05 11:43:27;;;;;;;3.90;3.60;;;;;;;30.81;30.41;65199.53;5016386;28;20377;-76
2022/08/05 11:45:55;;;;;;;3.97;3.72;;;;;;;30.53;31.12;65167.94;5023854;28;20308;-76
2022/08/05 11:48:22;;;;;;;4.18;3.80;;;;;;;30.30;31.38;65146.41;5027979;28;20240;-74